Sun City, CA (92585)

6:34 PM PST on February 21, 2017 (GMT -0800)
MD3590 | | Change Station
Active Advisory: Small Craft Advisory

Elev 1495 ft 33.75 °N, 117.15 °W | Updated 29 minutes ago

Overcast
Overcast
61.0 °F
Feels Like 61.0 °F
N
0.0
Wind Variable Wind from NE
Gusts 0.0 mph

Today
High -- | Low -- °F
--% Chance of Precip.
Yesterday
High -- | Low -- °F
Precip. -- in
Pressure 30.22 in
Visibility 10.0 miles
Clouds Overcast 5500 ft
Dew Point 50 °F
Humidity 67%
Rainfall 0.00 in
Snow Depth Not available.
6:26 AM 5:38 PM
Waning Crescent, 21% visible
METAR KRIV 220158Z AUTO 30005KT 10SM OVC055 15/12 A3022 RMK AO2 SLP231 T01460119
Pressure 30.22 in
Visibility 10.0 miles
Clouds Overcast 5500 ft
Dew Point 50 °F
Humidity 67%
Rainfall 0.00 in
Snow Depth Not available.
6:26 AM 5:38 PM
Waning Crescent, 21% visible
METAR KRIV 220158Z AUTO 30005KT 10SM OVC055 15/12 A3022 RMK AO2 SLP231 T01460119

Get Your Daily Forecast Email!

Thanks for signing up!

Be on the lookout for a verification email in your inbox.

You'll start receiving the daily forecast at 8 AM.

×

10-Day Weather Forecast

Almanac

Astronomy

Feb. 21, 2017 Rise Set
Actual Time
Civil Twilight
Nautical Twilight
Astronomical Twilight
Moon
Length of Visible Light
Length of Day
Tomorrow will be .
, % of the Moon is Illuminated

Today's Extremes

State Highs State Lows

Community

WunderPhotos

Upload Photos

1,962,540 photos uploaded!

WunderBlog® & News

Nearby

Air Quality

  Air Quality AQ Index Pollutant
Not available.

Snow Depth

Station Depth Elevation

Earthquake Activity

City Distance Mag. Time & Date
Minimum magnitude displayed is 2.5.

Coastal Water Temperatures

Place Temperature

Stations

Nearby Weather Stations

Station Location Temp. Windchill Dew Point Humidity Wind Precip. Elev Updated Type
                   

Watches & Warnings

Small Craft Advisory
Issued: 1:32 PM PST Feb. 21, 2017 – National Weather Service

... Small Craft Advisory in effect from 7 am Wednesday to 2 am PST
Friday...

The National Weather Service in San Diego has issued a Small
Craft Advisory... which is in effect from 7 am Wednesday to 2 am
PST Friday.

* Winds... northwest winds will increase on Wednesday with gusts of
20 to 30 knots forecast Wednesday afternoon and night before
gradually subsiding on Thursday.

* Waves/seas... seas will build to 7 to 12 feet on Wednesday as a
swell from 280 degrees builds into the local waters. The highest
seas will be over the offshore waters off the southern San Diego
coast. Seas will remain above 7 feet through Friday morning
before subsiding.

Precautionary/preparedness actions...

A Small Craft Advisory means that wind speeds of 21 to 33 knots
are expected to produce hazardous wave conditions to small craft.
Inexperienced mariners... especially those operating smaller
vessels should avoid navigating in these conditions.


Gregoria